sensor_id;sensor_type;location;lat;lon;timestamp;temperature;humidity
39045;DHT22;52192;52.002;5.956;2022-12-07T00:01:19;7.00;82.00
39045;DHT22;52192;52.002;5.956;2022-12-07T00:03:46;7.10;81.90
39045;DHT22;52192;52.002;5.956;2022-12-07T00:06:13;7.00;81.90
39045;DHT22;52192;52.002;5.956;2022-12-07T00:08:39;7.00;81.90
39045;DHT22;52192;52.002;5.956;2022-12-07T00:13:38;6.90;82.00
39045;DHT22;52192;52.002;5.956;2022-12-07T00:16:10;6.90;82.00
39045;DHT22;52192;52.002;5.956;2022-12-07T00:18:37;6.80;82.00
39045;DHT22;52192;52.002;5.956;2022-12-07T00:21:11;6.80;82.10
39045;DHT22;52192;52.002;5.956;2022-12-07T00:23:38;6.80;82.20
39045;DHT22;52192;52.002;5.956;2022-12-07T00:26:19;6.70;82.20
39045;DHT22;52192;52.002;5.956;2022-12-07T00:28:49;6.70;82.10
39045;DHT22;52192;52.002;5.956;2022-12-07T00:31:16;6.70;82.20
39045;DHT22;52192;52.002;5.956;2022-12-07T00:33:42;6.60;82.20
39045;DHT22;52192;52.002;5.956;2022-12-07T00:36:11;6.60;82.30
39045;DHT22;52192;52.002;5.956;2022-12-07T00:38:38;6.60;82.20
39045;DHT22;52192;52.002;5.956;2022-12-07T00:41:12;6.60;82.20
39045;DHT22;52192;52.002;5.956;2022-12-07T00:43:39;6.60;82.20
39045;DHT22;52192;52.002;5.956;2022-12-07T00:46:05;6.50;82.20
39045;DHT22;52192;52.002;5.956;2022-12-07T00:48:31;6.50;82.20
39045;DHT22;52192;52.002;5.956;2022-12-07T00:50:56;6.50;82.20
39045;DHT22;52192;52.002;5.956;2022-12-07T00:53:22;6.50;82.30
39045;DHT22;52192;52.002;5.956;2022-12-07T00:55:48;6.50;82.30
39045;DHT22;52192;52.002;5.956;2022-12-07T00:58:14;6.40;82.20
39045;DHT22;52192;52.002;5.956;2022-12-07T01:00:41;6.40;82.30
39045;DHT22;52192;52.002;5.956;2022-12-07T01:03:09;6.40;82.20
39045;DHT22;52192;52.002;5.956;2022-12-07T01:05:35;6.40;82.30
39045;DHT22;52192;52.002;5.956;2022-12-07T01:08:01;6.30;82.30
39045;DHT22;52192;52.002;5.956;2022-12-07T01:10:27;6.30;82.30
39045;DHT22;52192;52.002;5.956;2022-12-07T01:12:53;6.30;82.30
39045;DHT22;52192;52.002;5.956;2022-12-07T01:15:18;6.20;82.20
39045;DHT22;52192;52.002;5.956;2022-12-07T01:17:44;6.20;82.20
39045;DHT22;52192;52.002;5.956;2022-12-07T01:20:10;6.10;82.30
39045;DHT22;52192;52.002;5.956;2022-12-07T01:22:38;6.10;82.30
39045;DHT22;52192;52.002;5.956;2022-12-07T01:25:05;6.10;82.40
39045;DHT22;52192;52.002;5.956;2022-12-07T01:27:31;6.10;82.40
39045;DHT22;52192;52.002;5.956;2022-12-07T01:29:57;6.10;82.30
39045;DHT22;52192;52.002;5.956;2022-12-07T01:32:23;6.10;82.30
39045;DHT22;52192;52.002;5.956;2022-12-07T01:34:48;6.10;82.20
39045;DHT22;52192;52.002;5.956;2022-12-07T01:37:14;6.00;82.30
39045;DHT22;52192;52.002;5.956;2022-12-07T01:39:40;6.00;82.30
39045;DHT22;52192;52.002;5.956;2022-12-07T01:42:12;6.00;82.20
39045;DHT22;52192;52.002;5.956;2022-12-07T01:47:42;6.00;82.10
39045;DHT22;52192;52.002;5.956;2022-12-07T01:50:09;6.00;82.30
39045;DHT22;52192;52.002;5.956;2022-12-07T01:52:35;6.00;82.30
39045;DHT22;52192;52.002;5.956;2022-12-07T01:55:06;6.00;82.30
39045;DHT22;52192;52.002;5.956;2022-12-07T01:57:34;6.00;82.30
39045;DHT22;52192;52.002;5.956;2022-12-07T02:00:01;5.90;82.20
39045;DHT22;52192;52.002;5.956;2022-12-07T02:02:33;5.90;82.20
39045;DHT22;52192;52.002;5.956;2022-12-07T02:05:02;5.90;82.20
39045;DHT22;52192;52.002;5.956;2022-12-07T02:07:29;5.80;82.30
39045;DHT22;52192;52.002;5.956;2022-12-07T02:09:55;5.80;82.30
39045;DHT22;52192;52.002;5.956;2022-12-07T02:12:22;5.80;82.30
39045;DHT22;52192;52.002;5.956;2022-12-07T02:14:49;5.70;82.30
39045;DHT22;52192;52.002;5.956;2022-12-07T02:17:34;5.70;82.30
39045;DHT22;52192;52.002;5.956;2022-12-07T02:22:47;5.70;82.20
39045;DHT22;52192;52.002;5.956;2022-12-07T02:29:18;5.70;82.10
39045;DHT22;52192;52.002;5.956;2022-12-07T02:31:55;5.60;82.10
39045;DHT22;52192;52.002;5.956;2022-12-07T02:34:28;5.60;82.30
39045;DHT22;52192;52.002;5.956;2022-12-07T02:36:59;5.60;82.30
39045;DHT22;52192;52.002;5.956;2022-12-07T02:39:41;5.50;82.20
39045;DHT22;52192;52.002;5.956;2022-12-07T02:42:14;5.50;82.20
39045;DHT22;52192;52.002;5.956;2022-12-07T02:44:42;5.50;82.30
39045;DHT22;52192;52.002;5.956;2022-12-07T02:47:12;5.50;82.30
39045;DHT22;52192;52.002;5.956;2022-12-07T02:49:39;5.50;82.80
39045;DHT22;52192;52.002;5.956;2022-12-07T02:52:06;5.50;82.20
39045;DHT22;52192;52.002;5.956;2022-12-07T02:54:31;5.40;82.20
39045;DHT22;52192;52.002;5.956;2022-12-07T02:57:29;5.50;82.20
39045;DHT22;52192;52.002;5.956;2022-12-07T03:00:05;5.50;82.10
39045;DHT22;52192;52.002;5.956;2022-12-07T03:05:44;5.40;82.10
39045;DHT22;52192;52.002;5.956;2022-12-07T03:11:03;5.30;82.10
39045;DHT22;52192;52.002;5.956;2022-12-07T03:13:40;5.30;82.10
39045;DHT22;52192;52.002;5.956;2022-12-07T03:18:51;5.40;82.10
39045;DHT22;52192;52.002;5.956;2022-12-07T03:21:22;5.40;82.00
39045;DHT22;52192;52.002;5.956;2022-12-07T03:23:53;5.50;81.90
39045;DHT22;52192;52.002;5.956;2022-12-07T03:26:23;5.50;81.90
39045;DHT22;52192;52.002;5.956;2022-12-07T03:28:52;5.50;81.80
39045;DHT22;52192;52.002;5.956;2022-12-07T03:31:26;5.60;81.80
39045;DHT22;52192;52.002;5.956;2022-12-07T03:34:06;5.60;81.70
39045;DHT22;52192;52.002;5.956;2022-12-07T03:36:43;5.70;81.70
39045;DHT22;52192;52.002;5.956;2022-12-07T03:39:45;5.70;81.60
39045;DHT22;52192;52.002;5.956;2022-12-07T03:42:10;5.70;81.60
39045;DHT22;52192;52.002;5.956;2022-12-07T03:44:37;5.70;81.70
39045;DHT22;52192;52.002;5.956;2022-12-07T03:55:20;5.80;81.60
39045;DHT22;52192;52.002;5.956;2022-12-07T03:57:50;5.80;81.60
39045;DHT22;52192;52.002;5.956;2022-12-07T04:00:17;5.80;81.70
39045;DHT22;52192;52.002;5.956;2022-12-07T04:02:43;5.90;81.60
39045;DHT22;52192;52.002;5.956;2022-12-07T04:05:10;5.90;81.60
39045;DHT22;52192;52.002;5.956;2022-12-07T04:07:35;5.90;81.60
39045;DHT22;52192;52.002;5.956;2022-12-07T04:10:01;5.90;81.60
39045;DHT22;52192;52.002;5.956;2022-12-07T04:12:27;5.90;81.60
39045;DHT22;52192;52.002;5.956;2022-12-07T04:14:53;5.90;81.70
39045;DHT22;52192;52.002;5.956;2022-12-07T04:17:18;5.90;81.70
39045;DHT22;52192;52.002;5.956;2022-12-07T04:19:44;5.90;81.70
39045;DHT22;52192;52.002;5.956;2022-12-07T04:22:10;5.90;81.70
39045;DHT22;52192;52.002;5.956;2022-12-07T04:24:35;5.80;81.80
39045;DHT22;52192;52.002;5.956;2022-12-07T04:27:01;5.80;81.80
39045;DHT22;52192;52.002;5.956;2022-12-07T04:29:27;5.80;81.80
39045;DHT22;52192;52.002;5.956;2022-12-07T04:31:53;5.80;81.80
39045;DHT22;52192;52.002;5.956;2022-12-07T04:34:19;5.80;81.80
39045;DHT22;52192;52.002;5.956;2022-12-07T04:36:46;5.80;81.80
39045;DHT22;52192;52.002;5.956;2022-12-07T04:39:24;5.80;81.90
39045;DHT22;52192;52.002;5.956;2022-12-07T04:41:50;5.90;81.80
39045;DHT22;52192;52.002;5.956;2022-12-07T04:44:17;5.80;81.80
39045;DHT22;52192;52.002;5.956;2022-12-07T04:46:43;5.80;81.80
39045;DHT22;52192;52.002;5.956;2022-12-07T04:49:10;5.80;81.80
39045;DHT22;52192;52.002;5.956;2022-12-07T04:51:36;5.80;81.90
39045;DHT22;52192;52.002;5.956;2022-12-07T04:54:01;5.90;81.90
39045;DHT22;52192;52.002;5.956;2022-12-07T04:56:27;5.90;81.80
39045;DHT22;52192;52.002;5.956;2022-12-07T04:58:54;5.90;81.80
39045;DHT22;52192;52.002;5.956;2022-12-07T05:01:20;6.00;81.80
39045;DHT22;52192;52.002;5.956;2022-12-07T05:03:46;6.00;81.70
39045;DHT22;52192;52.002;5.956;2022-12-07T05:06:13;6.00;81.70
39045;DHT22;52192;52.002;5.956;2022-12-07T05:08:39;6.00;81.70
39045;DHT22;52192;52.002;5.956;2022-12-07T05:11:06;6.00;81.70
39045;DHT22;52192;52.002;5.956;2022-12-07T05:13:33;6.00;81.80
39045;DHT22;52192;52.002;5.956;2022-12-07T05:15:59;5.90;81.70
39045;DHT22;52192;52.002;5.956;2022-12-07T05:18:25;5.90;81.70
39045;DHT22;52192;52.002;5.956;2022-12-07T05:20:51;5.90;81.70
39045;DHT22;52192;52.002;5.956;2022-12-07T05:23:17;5.80;81.70
39045;DHT22;52192;52.002;5.956;2022-12-07T05:25:43;5.80;81.80
39045;DHT22;52192;52.002;5.956;2022-12-07T05:28:09;5.70;81.90
39045;DHT22;52192;52.002;5.956;2022-12-07T05:30:35;5.60;81.90
39045;DHT22;52192;52.002;5.956;2022-12-07T05:33:01;5.60;81.90
39045;DHT22;52192;52.002;5.956;2022-12-07T05:35:28;5.50;82.00
39045;DHT22;52192;52.002;5.956;2022-12-07T05:37:55;5.40;82.00
39045;DHT22;52192;52.002;5.956;2022-12-07T05:40:21;5.50;82.10
39045;DHT22;52192;52.002;5.956;2022-12-07T05:42:47;5.40;82.00
39045;DHT22;52192;52.002;5.956;2022-12-07T05:45:12;5.40;82.00
39045;DHT22;52192;52.002;5.956;2022-12-07T05:47:38;5.40;82.00
39045;DHT22;52192;52.002;5.956;2022-12-07T05:50:05;5.40;82.00
39045;DHT22;52192;52.002;5.956;2022-12-07T05:52:31;5.40;82.00
39045;DHT22;52192;52.002;5.956;2022-12-07T05:54:57;5.40;81.90
39045;DHT22;52192;52.002;5.956;2022-12-07T05:57:22;5.40;81.90
39045;DHT22;52192;52.002;5.956;2022-12-07T05:59:48;5.40;81.90
39045;DHT22;52192;52.002;5.956;2022-12-07T06:02:15;5.30;81.90
39045;DHT22;52192;52.002;5.956;2022-12-07T06:04:43;5.30;81.90
39045;DHT22;52192;52.002;5.956;2022-12-07T06:07:11;5.30;82.00
39045;DHT22;52192;52.002;5.956;2022-12-07T06:09:37;5.30;82.30
39045;DHT22;52192;52.002;5.956;2022-12-07T06:12:04;5.30;82.10
39045;DHT22;52192;52.002;5.956;2022-12-07T06:14:48;5.20;82.10
39045;DHT22;52192;52.002;5.956;2022-12-07T06:17:14;5.20;82.10
39045;DHT22;52192;52.002;5.956;2022-12-07T06:19:40;5.20;82.00
39045;DHT22;52192;52.002;5.956;2022-12-07T06:22:07;5.10;81.90
39045;DHT22;52192;52.002;5.956;2022-12-07T06:24:34;5.10;81.90
39045;DHT22;52192;52.002;5.956;2022-12-07T06:27:00;5.00;81.90
39045;DHT22;52192;52.002;5.956;2022-12-07T06:29:26;5.00;81.90
39045;DHT22;52192;52.002;5.956;2022-12-07T06:31:52;4.90;81.90
39045;DHT22;52192;52.002;5.956;2022-12-07T06:34:20;4.90;81.80
39045;DHT22;52192;52.002;5.956;2022-12-07T06:36:46;4.90;81.90
39045;DHT22;52192;52.002;5.956;2022-12-07T06:39:20;4.80;81.90
39045;DHT22;52192;52.002;5.956;2022-12-07T06:41:46;4.80;82.00
39045;DHT22;52192;52.002;5.956;2022-12-07T06:44:12;4.70;82.00
39045;DHT22;52192;52.002;5.956;2022-12-07T06:46:38;4.70;82.00
39045;DHT22;52192;52.002;5.956;2022-12-07T06:49:04;4.70;82.00
39045;DHT22;52192;52.002;5.956;2022-12-07T06:51:31;4.70;82.00
39045;DHT22;52192;52.002;5.956;2022-12-07T06:53:57;4.70;82.10
39045;DHT22;52192;52.002;5.956;2022-12-07T06:56:23;4.70;82.10
39045;DHT22;52192;52.002;5.956;2022-12-07T06:58:49;4.70;82.20
39045;DHT22;52192;52.002;5.956;2022-12-07T07:01:17;4.80;82.20
39045;DHT22;52192;52.002;5.956;2022-12-07T07:03:44;4.80;82.10
39045;DHT22;52192;52.002;5.956;2022-12-07T07:06:11;4.90;82.20
39045;DHT22;52192;52.002;5.956;2022-12-07T07:08:38;4.90;82.00
39045;DHT22;52192;52.002;5.956;2022-12-07T07:11:04;4.90;82.00
39045;DHT22;52192;52.002;5.956;2022-12-07T07:13:30;4.90;81.90
39045;DHT22;52192;52.002;5.956;2022-12-07T07:15:56;4.90;81.90
39045;DHT22;52192;52.002;5.956;2022-12-07T07:18:22;4.90;81.90
39045;DHT22;52192;52.002;5.956;2022-12-07T07:20:47;5.00;82.00
39045;DHT22;52192;52.002;5.956;2022-12-07T07:23:13;4.90;81.80
39045;DHT22;52192;52.002;5.956;2022-12-07T07:25:39;4.90;81.90
39045;DHT22;52192;52.002;5.956;2022-12-07T07:28:05;4.90;81.90
39045;DHT22;52192;52.002;5.956;2022-12-07T07:30:30;4.90;81.90
39045;DHT22;52192;52.002;5.956;2022-12-07T07:33:00;4.90;81.90
39045;DHT22;52192;52.002;5.956;2022-12-07T07:35:27;4.80;81.90
39045;DHT22;52192;52.002;5.956;2022-12-07T07:37:54;4.90;82.00
39045;DHT22;52192;52.002;5.956;2022-12-07T07:40:20;4.80;81.90
39045;DHT22;52192;52.002;5.956;2022-12-07T07:42:53;4.80;81.90
39045;DHT22;52192;52.002;5.956;2022-12-07T07:45:20;4.80;81.80
39045;DHT22;52192;52.002;5.956;2022-12-07T07:47:46;4.80;81.90
39045;DHT22;52192;52.002;5.956;2022-12-07T07:50:12;4.70;81.80
39045;DHT22;52192;52.002;5.956;2022-12-07T07:52:38;4.70;81.90
39045;DHT22;52192;52.002;5.956;2022-12-07T07:55:04;4.70;81.90
39045;DHT22;52192;52.002;5.956;2022-12-07T07:57:30;4.80;82.00
39045;DHT22;52192;52.002;5.956;2022-12-07T07:59:56;4.80;82.00
39045;DHT22;52192;52.002;5.956;2022-12-07T08:02:22;4.80;81.90
39045;DHT22;52192;52.002;5.956;2022-12-07T08:04:48;4.80;81.90
39045;DHT22;52192;52.002;5.956;2022-12-07T08:07:15;4.80;81.80
39045;DHT22;52192;52.002;5.956;2022-12-07T08:09:41;4.90;81.80
39045;DHT22;52192;52.002;5.956;2022-12-07T08:12:07;4.90;81.80
39045;DHT22;52192;52.002;5.956;2022-12-07T08:14:33;4.90;81.90
39045;DHT22;52192;52.002;5.956;2022-12-07T08:16:59;4.90;81.80
39045;DHT22;52192;52.002;5.956;2022-12-07T08:19:25;4.90;81.90
39045;DHT22;52192;52.002;5.956;2022-12-07T08:21:51;5.00;81.80
39045;DHT22;52192;52.002;5.956;2022-12-07T08:24:17;5.00;81.70
39045;DHT22;52192;52.002;5.956;2022-12-07T08:26:43;5.10;81.70
39045;DHT22;52192;52.002;5.956;2022-12-07T08:29:09;5.20;81.60
39045;DHT22;52192;52.002;5.956;2022-12-07T08:31:35;5.30;81.50
39045;DHT22;52192;52.002;5.956;2022-12-07T08:34:01;5.40;81.40
39045;DHT22;52192;52.002;5.956;2022-12-07T08:36:26;5.50;81.30
39045;DHT22;52192;52.002;5.956;2022-12-07T08:38:52;5.60;81.30
39045;DHT22;52192;52.002;5.956;2022-12-07T08:41:18;5.70;81.30
39045;DHT22;52192;52.002;5.956;2022-12-07T08:43:44;5.70;81.20
39045;DHT22;52192;52.002;5.956;2022-12-07T08:46:18;5.70;81.30
39045;DHT22;52192;52.002;5.956;2022-12-07T08:49:04;5.80;82.00
39045;DHT22;52192;52.002;5.956;2022-12-07T08:51:31;5.80;81.40
39045;DHT22;52192;52.002;5.956;2022-12-07T08:53:59;5.80;81.40
39045;DHT22;52192;52.002;5.956;2022-12-07T08:56:26;5.80;81.30
39045;DHT22;52192;52.002;5.956;2022-12-07T08:58:52;5.90;81.30
39045;DHT22;52192;52.002;5.956;2022-12-07T09:01:18;5.90;81.30
39045;DHT22;52192;52.002;5.956;2022-12-07T09:03:44;5.80;81.30
39045;DHT22;52192;52.002;5.956;2022-12-07T09:06:09;5.90;81.40
39045;DHT22;52192;52.002;5.956;2022-12-07T09:08:40;5.90;81.40
39045;DHT22;52192;52.002;5.956;2022-12-07T09:11:06;6.00;81.50
39045;DHT22;52192;52.002;5.956;2022-12-07T09:13:32;6.00;81.40
39045;DHT22;52192;52.002;5.956;2022-12-07T09:15:58;6.10;81.30
39045;DHT22;52192;52.002;5.956;2022-12-07T09:18:23;6.20;81.10
39045;DHT22;52192;52.002;5.956;2022-12-07T09:20:50;6.20;81.00
39045;DHT22;52192;52.002;5.956;2022-12-07T09:23:16;6.20;81.00
39045;DHT22;52192;52.002;5.956;2022-12-07T09:25:42;6.30;81.10
39045;DHT22;52192;52.002;5.956;2022-12-07T09:28:08;6.30;81.00
39045;DHT22;52192;52.002;5.956;2022-12-07T09:30:34;6.40;81.00
39045;DHT22;52192;52.002;5.956;2022-12-07T09:32:59;6.50;80.90
39045;DHT22;52192;52.002;5.956;2022-12-07T09:35:26;6.60;80.80
39045;DHT22;52192;52.002;5.956;2022-12-07T09:37:52;6.70;80.60
39045;DHT22;52192;52.002;5.956;2022-12-07T09:40:20;6.80;80.50
39045;DHT22;52192;52.002;5.956;2022-12-07T09:42:49;6.80;80.40
39045;DHT22;52192;52.002;5.956;2022-12-07T09:45:35;6.90;80.40
39045;DHT22;52192;52.002;5.956;2022-12-07T09:48:05;7.00;80.30
39045;DHT22;52192;52.002;5.956;2022-12-07T09:50:31;7.00;80.40
39045;DHT22;52192;52.002;5.956;2022-12-07T09:53:13;7.00;80.40
39045;DHT22;52192;52.002;5.956;2022-12-07T09:55:41;7.10;80.30
39045;DHT22;52192;52.002;5.956;2022-12-07T09:58:19;7.10;80.30
39045;DHT22;52192;52.002;5.956;2022-12-07T10:00:46;7.20;80.30
39045;DHT22;52192;52.002;5.956;2022-12-07T10:03:11;7.20;80.20
39045;DHT22;52192;52.002;5.956;2022-12-07T10:05:44;7.10;80.10
39045;DHT22;52192;52.002;5.956;2022-12-07T10:08:14;7.10;80.20
39045;DHT22;52192;52.002;5.956;2022-12-07T10:10:43;7.10;80.30
39045;DHT22;52192;52.002;5.956;2022-12-07T10:13:11;7.10;80.40
39045;DHT22;52192;52.002;5.956;2022-12-07T10:15:53;7.30;80.80
39045;DHT22;52192;52.002;5.956;2022-12-07T10:18:24;7.90;80.80
39045;DHT22;52192;52.002;5.956;2022-12-07T10:24:14;10.00;75.30
39045;DHT22;52192;52.002;5.956;2022-12-07T10:29:16;10.50;71.90
39045;DHT22;52192;52.002;5.956;2022-12-07T10:31:44;10.20;72.50
39045;DHT22;52192;52.002;5.956;2022-12-07T10:34:23;10.00;72.60
39045;DHT22;52192;52.002;5.956;2022-12-07T10:36:50;9.90;73.20
39045;DHT22;52192;52.002;5.956;2022-12-07T10:39:21;10.00;73.50
39045;DHT22;52192;52.002;5.956;2022-12-07T10:42:00;10.20;73.40
39045;DHT22;52192;52.002;5.956;2022-12-07T10:44:28;10.50;73.00
39045;DHT22;52192;52.002;5.956;2022-12-07T10:47:10;10.90;72.30
39045;DHT22;52192;52.002;5.956;2022-12-07T10:49:48;10.90;71.40
39045;DHT22;52192;52.002;5.956;2022-12-07T10:52:29;10.60;71.50
39045;DHT22;52192;52.002;5.956;2022-12-07T10:55:56;10.60;72.40
39045;DHT22;52192;52.002;5.956;2022-12-07T10:58:39;11.30;69.10
39045;DHT22;52192;52.002;5.956;2022-12-07T11:12:41;9.50;72.60
39045;DHT22;52192;52.002;5.956;2022-12-07T11:18:18;9.30;73.50
39045;DHT22;52192;52.002;5.956;2022-12-07T11:21:04;9.70;73.30
39045;DHT22;52192;52.002;5.956;2022-12-07T11:27:02;12.60;68.90
39045;DHT22;52192;52.002;5.956;2022-12-07T11:37:41;19.50;53.20
39045;DHT22;52192;52.002;5.956;2022-12-07T11:40:30;20.40;51.20
39045;DHT22;52192;52.002;5.956;2022-12-07T11:43:26;21.50;49.40
39045;DHT22;52192;52.002;5.956;2022-12-07T11:46:03;22.40;47.40
39045;DHT22;52192;52.002;5.956;2022-12-07T11:51:19;23.50;43.80
39045;DHT22;52192;52.002;5.956;2022-12-07T11:53:59;23.50;43.70
39045;DHT22;52192;52.002;5.956;2022-12-07T11:56:28;23.50;43.50
39045;DHT22;52192;52.002;5.956;2022-12-07T11:58:58;23.70;42.80
39045;DHT22;52192;52.002;5.956;2022-12-07T12:06:38;20.00;44.60
39045;DHT22;52192;52.002;5.956;2022-12-07T12:09:12;17.90;48.20
39045;DHT22;52192;52.002;5.956;2022-12-07T12:17:05;13.50;56.10
39045;DHT22;52192;52.002;5.956;2022-12-07T12:22:40;12.70;60.40
39045;DHT22;52192;52.002;5.956;2022-12-07T12:27:46;17.10;53.50
39045;DHT22;52192;52.002;5.956;2022-12-07T12:32:51;19.40;48.10
39045;DHT22;52192;52.002;5.956;2022-12-07T12:35:28;19.70;46.60
39045;DHT22;52192;52.002;5.956;2022-12-07T12:40:47;19.90;46.20
39045;DHT22;52192;52.002;5.956;2022-12-07T12:46:53;19.50;45.90
39045;DHT22;52192;52.002;5.956;2022-12-07T12:51:48;16.20;49.70
39045;DHT22;52192;52.002;5.956;2022-12-07T12:54:19;15.10;52.20
39045;DHT22;52192;52.002;5.956;2022-12-07T12:59:34;13.30;56.00
39045;DHT22;52192;52.002;5.956;2022-12-07T13:02:21;13.10;57.30
39045;DHT22;52192;52.002;5.956;2022-12-07T13:29:04;16.20;50.50
39045;DHT22;52192;52.002;5.956;2022-12-07T13:31:44;15.20;52.70
39045;DHT22;52192;52.002;5.956;2022-12-07T13:37:01;13.70;55.60
39045;DHT22;52192;52.002;5.956;2022-12-07T13:39:28;13.00;56.90
39045;DHT22;52192;52.002;5.956;2022-12-07T13:41:56;12.70;58.30
39045;DHT22;52192;52.002;5.956;2022-12-07T13:44:25;12.40;58.70
39045;DHT22;52192;52.002;5.956;2022-12-07T13:49:38;11.80;60.20
39045;DHT22;52192;52.002;5.956;2022-12-07T13:52:16;11.50;60.80
39045;DHT22;52192;52.002;5.956;2022-12-07T13:54:55;11.20;61.80
39045;DHT22;52192;52.002;5.956;2022-12-07T13:57:23;11.00;62.60
39045;DHT22;52192;52.002;5.956;2022-12-07T13:59:50;10.90;63.00
39045;DHT22;52192;52.002;5.956;2022-12-07T14:02:27;10.80;63.10
39045;DHT22;52192;52.002;5.956;2022-12-07T14:05:13;10.70;63.50
39045;DHT22;52192;52.002;5.956;2022-12-07T14:07:58;10.60;64.20
39045;DHT22;52192;52.002;5.956;2022-12-07T14:10:25;10.40;64.60
39045;DHT22;52192;52.002;5.956;2022-12-07T14:12:51;10.20;65.00
39045;DHT22;52192;52.002;5.956;2022-12-07T14:15:23;10.10;65.60
39045;DHT22;52192;52.002;5.956;2022-12-07T14:17:51;10.00;66.00
39045;DHT22;52192;52.002;5.956;2022-12-07T14:20:37;9.80;66.40
39045;DHT22;52192;52.002;5.956;2022-12-07T14:23:04;9.70;66.70
39045;DHT22;52192;52.002;5.956;2022-12-07T14:25:50;9.50;67.10
39045;DHT22;52192;52.002;5.956;2022-12-07T14:28:29;9.40;67.30
39045;DHT22;52192;52.002;5.956;2022-12-07T14:30:55;9.30;67.70
39045;DHT22;52192;52.002;5.956;2022-12-07T14:33:21;9.20;67.80
39045;DHT22;52192;52.002;5.956;2022-12-07T14:35:47;9.20;68.20
39045;DHT22;52192;52.002;5.956;2022-12-07T14:38:13;9.10;68.40
39045;DHT22;52192;52.002;5.956;2022-12-07T14:40:39;9.20;68.30
39045;DHT22;52192;52.002;5.956;2022-12-07T14:43:09;9.20;68.30
39045;DHT22;52192;52.002;5.956;2022-12-07T14:45:37;9.20;68.30
39045;DHT22;52192;52.002;5.956;2022-12-07T14:48:02;9.20;68.30
39045;DHT22;52192;52.002;5.956;2022-12-07T14:50:29;9.20;68.40
39045;DHT22;52192;52.002;5.956;2022-12-07T14:52:58;9.20;68.50
39045;DHT22;52192;52.002;5.956;2022-12-07T14:55:27;9.20;68.60
39045;DHT22;52192;52.002;5.956;2022-12-07T14:57:54;9.20;68.80
39045;DHT22;52192;52.002;5.956;2022-12-07T15:00:21;9.10;68.90
39045;DHT22;52192;52.002;5.956;2022-12-07T15:02:48;9.10;69.20
39045;DHT22;52192;52.002;5.956;2022-12-07T15:05:14;9.10;69.40
39045;DHT22;52192;52.002;5.956;2022-12-07T15:07:40;9.10;69.50
39045;DHT22;52192;52.002;5.956;2022-12-07T15:10:09;9.00;69.70
39045;DHT22;52192;52.002;5.956;2022-12-07T15:12:38;8.90;69.90
39045;DHT22;52192;52.002;5.956;2022-12-07T15:15:04;8.80;70.30
39045;DHT22;52192;52.002;5.956;2022-12-07T15:17:30;8.80;70.40
39045;DHT22;52192;52.002;5.956;2022-12-07T15:19:56;8.80;70.50
39045;DHT22;52192;52.002;5.956;2022-12-07T15:22:22;8.80;70.50
39045;DHT22;52192;52.002;5.956;2022-12-07T15:24:47;8.80;70.60
39045;DHT22;52192;52.002;5.956;2022-12-07T15:27:13;8.80;70.60
39045;DHT22;52192;52.002;5.956;2022-12-07T15:29:39;8.70;70.70
39045;DHT22;52192;52.002;5.956;2022-12-07T15:32:04;8.70;70.80
39045;DHT22;52192;52.002;5.956;2022-12-07T15:34:30;8.60;70.80
39045;DHT22;52192;52.002;5.956;2022-12-07T15:36:57;8.60;71.00
39045;DHT22;52192;52.002;5.956;2022-12-07T15:39:22;8.60;71.10
39045;DHT22;52192;52.002;5.956;2022-12-07T15:41:48;8.60;71.10
39045;DHT22;52192;52.002;5.956;2022-12-07T15:44:14;8.60;71.20
39045;DHT22;52192;52.002;5.956;2022-12-07T15:47:00;8.60;71.30
39045;DHT22;52192;52.002;5.956;2022-12-07T15:49:26;8.50;71.60
39045;DHT22;52192;52.002;5.956;2022-12-07T15:51:52;8.50;71.70
39045;DHT22;52192;52.002;5.956;2022-12-07T15:54:26;8.50;71.80
39045;DHT22;52192;52.002;5.956;2022-12-07T15:56:53;8.40;71.80
39045;DHT22;52192;52.002;5.956;2022-12-07T15:59:19;8.40;72.00
39045;DHT22;52192;52.002;5.956;2022-12-07T16:01:45;8.40;72.10
39045;DHT22;52192;52.002;5.956;2022-12-07T16:04:11;8.30;72.20
39045;DHT22;52192;52.002;5.956;2022-12-07T16:06:37;8.30;72.20
39045;DHT22;52192;52.002;5.956;2022-12-07T16:09:03;8.30;72.40
39045;DHT22;52192;52.002;5.956;2022-12-07T16:11:28;8.30;72.50
39045;DHT22;52192;52.002;5.956;2022-12-07T16:13:54;8.30;72.60
39045;DHT22;52192;52.002;5.956;2022-12-07T16:16:20;8.30;72.60
39045;DHT22;52192;52.002;5.956;2022-12-07T16:18:48;8.30;72.70
39045;DHT22;52192;52.002;5.956;2022-12-07T16:21:15;8.30;72.70
39045;DHT22;52192;52.002;5.956;2022-12-07T16:23:42;8.20;72.80
39045;DHT22;52192;52.002;5.956;2022-12-07T16:26:13;8.20;73.10
39045;DHT22;52192;52.002;5.956;2022-12-07T16:28:39;8.20;73.10
39045;DHT22;52192;52.002;5.956;2022-12-07T16:31:11;8.20;73.10
39045;DHT22;52192;52.002;5.956;2022-12-07T16:33:38;8.30;73.20
39045;DHT22;52192;52.002;5.956;2022-12-07T16:36:06;8.20;73.30
39045;DHT22;52192;52.002;5.956;2022-12-07T16:38:32;8.20;74.00
39045;DHT22;52192;52.002;5.956;2022-12-07T16:40:58;8.10;73.50
39045;DHT22;52192;52.002;5.956;2022-12-07T16:43:23;8.10;73.60
39045;DHT22;52192;52.002;5.956;2022-12-07T16:45:49;8.10;73.70
39045;DHT22;52192;52.002;5.956;2022-12-07T16:48:16;8.10;73.70
39045;DHT22;52192;52.002;5.956;2022-12-07T16:50:42;8.10;73.70
39045;DHT22;52192;52.002;5.956;2022-12-07T16:53:09;8.10;73.90
39045;DHT22;52192;52.002;5.956;2022-12-07T16:55:42;8.00;74.00
39045;DHT22;52192;52.002;5.956;2022-12-07T16:58:10;8.00;74.00
39045;DHT22;52192;52.002;5.956;2022-12-07T17:00:36;8.00;74.00
39045;DHT22;52192;52.002;5.956;2022-12-07T17:03:02;8.00;74.10
39045;DHT22;52192;52.002;5.956;2022-12-07T17:05:28;8.00;74.10
39045;DHT22;52192;52.002;5.956;2022-12-07T17:07:55;7.90;74.10
39045;DHT22;52192;52.002;5.956;2022-12-07T17:10:22;7.90;74.10
39045;DHT22;52192;52.002;5.956;2022-12-07T17:12:48;7.90;74.20
39045;DHT22;52192;52.002;5.956;2022-12-07T17:15:14;7.90;74.30
39045;DHT22;52192;52.002;5.956;2022-12-07T17:17:58;7.90;74.30
39045;DHT22;52192;52.002;5.956;2022-12-07T17:20:26;7.90;74.90
39045;DHT22;52192;52.002;5.956;2022-12-07T17:22:52;7.80;74.30
39045;DHT22;52192;52.002;5.956;2022-12-07T17:25:18;7.80;74.50
39045;DHT22;52192;52.002;5.956;2022-12-07T17:27:44;7.70;74.60
39045;DHT22;52192;52.002;5.956;2022-12-07T17:30:13;7.70;74.60
39045;DHT22;52192;52.002;5.956;2022-12-07T17:32:39;7.70;74.60
39045;DHT22;52192;52.002;5.956;2022-12-07T17:35:05;7.70;74.60
39045;DHT22;52192;52.002;5.956;2022-12-07T17:37:32;7.60;74.70
39045;DHT22;52192;52.002;5.956;2022-12-07T17:39:57;7.60;74.80
39045;DHT22;52192;52.002;5.956;2022-12-07T17:42:25;7.60;74.80
39045;DHT22;52192;52.002;5.956;2022-12-07T17:45:07;7.60;74.80
39045;DHT22;52192;52.002;5.956;2022-12-07T17:47:33;7.60;74.80
39045;DHT22;52192;52.002;5.956;2022-12-07T17:49:59;7.60;74.80
39045;DHT22;52192;52.002;5.956;2022-12-07T17:52:25;7.50;74.90
39045;DHT22;52192;52.002;5.956;2022-12-07T17:55:09;7.50;75.00
39045;DHT22;52192;52.002;5.956;2022-12-07T17:57:35;7.40;75.00
39045;DHT22;52192;52.002;5.956;2022-12-07T18:00:01;7.40;75.10